createdAt,value
2022-08-24T00:03:57.738Z,97342.72
2022-08-24T00:09:01.445Z,97349.94
2022-08-24T00:14:04.243Z,97346.50
2022-08-24T00:19:06.161Z,97348.59
2022-08-24T00:24:08.114Z,97352.94
2022-08-24T00:29:10.052Z,97344.56
2022-08-24T00:34:13.812Z,97349.47
2022-08-24T00:39:15.481Z,97347.53
2022-08-24T00:44:18.917Z,97342.78
2022-08-24T00:49:29.492Z,97351.66
2022-08-24T00:54:36.748Z,97349.75
2022-08-24T00:59:54.365Z,97351.72
2022-08-24T01:04:59.737Z,97360.53
2022-08-24T01:10:05.643Z,97357.19
2022-08-24T01:15:10.247Z,97362.19
2022-08-24T01:20:12.867Z,97360.91
2022-08-24T01:25:15.011Z,97349.00
2022-08-24T01:30:17.931Z,97352.09
2022-08-24T01:35:23.003Z,97339.28
2022-08-24T01:40:33.253Z,97343.31
2022-08-24T01:45:34.982Z,97337.16
2022-08-24T01:50:39.277Z,97348.66
2022-08-24T01:55:44.787Z,97335.69
2022-08-24T02:00:46.724Z,97324.16
2022-08-24T02:05:49.153Z,97333.28
2022-08-24T02:10:56.706Z,97340.97
2022-08-24T02:15:59.307Z,97344.31
2022-08-24T02:21:03.942Z,97342.72
2022-08-24T02:26:07.808Z,97345.97
2022-08-24T02:31:11.751Z,97347.50
2022-08-24T02:36:26.114Z,97351.13
2022-08-24T02:41:30.969Z,97342.69
2022-08-24T02:46:33.250Z,97352.03
2022-08-24T02:51:43.834Z,97349.59
2022-08-24T02:56:48.130Z,97350.88
2022-08-24T03:01:51.634Z,97348.19
2022-08-24T03:06:55.123Z,97350.50
2022-08-24T03:11:57.950Z,97355.56
2022-08-24T03:16:59.671Z,97356.72
2022-08-24T03:22:02.170Z,97348.75
2022-08-24T03:27:04.277Z,97342.19
2022-08-24T03:32:06.918Z,97348.50
2022-08-24T03:37:09.498Z,97351.44
2022-08-24T03:42:11.291Z,97360.19
2022-08-24T03:47:13.368Z,97360.72
2022-08-24T03:52:15.430Z,97358.13
2022-08-24T03:57:19.220Z,97361.41
2022-08-24T04:02:21.121Z,97364.72
2022-08-24T04:07:23.351Z,97363.34
2022-08-24T04:12:25.263Z,97366.84
2022-08-24T04:17:28.740Z,97370.31
2022-08-24T04:22:34.242Z,97372.56
2022-08-24T04:27:40.332Z,97374.75
2022-08-24T04:32:42.846Z,97370.06
2022-08-24T04:37:44.662Z,97376.00
2022-08-24T04:42:46.672Z,97386.16
2022-08-24T04:47:50.595Z,97383.72
2022-08-24T04:52:52.920Z,97388.47
2022-08-24T04:57:54.765Z,97390.13
2022-08-24T05:02:57.337Z,97391.69
2022-08-24T05:08:00.241Z,97407.63
2022-08-24T05:13:02.160Z,97408.47
2022-08-24T05:18:05.033Z,97410.09
2022-08-24T05:23:07.716Z,97408.63
2022-08-24T05:28:10.134Z,97420.00
2022-08-24T05:33:12.726Z,97419.13
2022-08-24T05:38:14.802Z,97420.00
2022-08-24T05:43:17.255Z,97429.88
2022-08-24T05:48:19.133Z,97429.09
2022-08-24T05:53:39.585Z,97431.09
2022-08-24T05:58:42.091Z,97439.19
2022-08-24T06:03:44.451Z,97431.91
2022-08-24T06:08:51.910Z,97430.97
2022-08-24T06:13:59.047Z,97435.28
2022-08-24T06:19:03.375Z,97430.56
2022-08-24T06:24:06.603Z,97429.59
2022-08-24T06:29:09.433Z,97423.81
2022-08-24T06:34:19.265Z,97414.97
2022-08-24T06:39:21.086Z,97419.28
2022-08-24T06:44:24.957Z,97419.25
2022-08-24T06:49:37.258Z,97431.50
2022-08-24T06:54:39.506Z,97437.25
2022-08-24T06:59:43.189Z,97435.75
2022-08-24T07:04:46.769Z,97440.84
2022-08-24T07:10:09.613Z,97437.69
2022-08-24T07:15:16.388Z,97441.69
2022-08-24T07:20:21.433Z,97438.66
2022-08-24T07:26:08.070Z,97441.50
2022-08-24T07:31:13.738Z,97433.91
2022-08-24T07:36:23.198Z,97439.53
2022-08-24T07:46:52.543Z,97442.44
2022-08-24T07:51:55.096Z,97439.97
2022-08-24T07:57:00.120Z,97436.41
2022-08-24T08:02:03.637Z,97437.06
2022-08-24T08:07:07.319Z,97436.75
2022-08-24T08:12:11.038Z,97429.53
2022-08-24T08:17:24.136Z,97428.22
2022-08-24T08:22:45.533Z,97421.00
2022-08-24T08:28:18.634Z,97419.50
2022-08-24T08:33:28.745Z,97424.22
2022-08-24T08:38:30.892Z,97418.31
2022-08-24T08:43:43.759Z,97423.81
2022-08-24T08:48:56.268Z,97424.38
2022-08-24T08:54:08.233Z,97421.78
2022-08-24T08:59:41.646Z,97428.03
2022-08-24T09:05:10.325Z,97419.47
2022-08-24T09:10:13.667Z,97427.69
2022-08-24T09:15:39.306Z,97425.09
2022-08-24T09:20:59.715Z,97428.72
2022-08-24T09:26:29.108Z,97424.38
2022-08-24T09:32:00.664Z,97431.25
2022-08-24T09:37:05.239Z,97423.69
2022-08-24T09:42:48.217Z,97421.72
2022-08-24T09:48:30.178Z,97422.38
2022-08-24T09:53:54.737Z,97426.72
2022-08-24T09:59:19.406Z,97422.06
2022-08-24T10:04:36.031Z,97418.81
2022-08-24T10:10:15.834Z,97415.59
2022-08-24T10:15:28.023Z,97410.94
2022-08-24T10:21:01.453Z,97407.16
2022-08-24T10:26:15.274Z,97398.53
2022-08-24T10:31:38.839Z,97407.63
2022-08-24T10:37:09.053Z,97408.19
2022-08-24T10:42:48.222Z,97399.09
2022-08-24T10:48:17.851Z,97393.38
2022-08-24T10:53:27.916Z,97380.00
2022-08-24T10:58:43.627Z,97381.56
2022-08-24T11:03:58.299Z,97381.84
2022-08-24T11:09:05.357Z,97392.63
2022-08-24T11:14:22.072Z,97397.66
2022-08-24T11:19:26.855Z,97397.09
2022-08-24T11:24:45.990Z,97399.94
2022-08-24T11:29:53.623Z,97395.44
2022-08-24T11:34:55.945Z,97386.00
2022-08-24T11:39:57.727Z,97387.13
2022-08-24T11:45:23.529Z,97373.25
2022-08-24T11:50:35.668Z,97375.06
2022-08-24T11:56:00.298Z,97381.50
2022-08-24T12:01:14.631Z,97379.97
2022-08-24T12:06:36.806Z,97380.97
2022-08-24T12:11:51.984Z,97367.97
2022-08-24T12:17:12.734Z,97363.78
2022-08-24T12:22:19.945Z,97370.03
2022-08-24T12:27:28.969Z,97375.16
2022-08-24T12:32:38.833Z,97374.03
2022-08-24T12:37:47.736Z,97372.38
2022-08-24T12:42:54.670Z,97367.28
2022-08-24T12:48:24.218Z,97366.56
2022-08-24T12:53:32.741Z,97362.47
2022-08-24T12:58:54.273Z,97356.63
2022-08-24T13:04:12.993Z,97358.00
2022-08-24T13:09:38.126Z,97367.56
2022-08-24T13:14:45.270Z,97361.63
2022-08-24T13:20:38.934Z,97348.91
2022-08-24T13:25:52.616Z,97346.88
2022-08-24T13:31:02.607Z,97345.03
2022-08-24T13:36:08.983Z,97347.47
2022-08-24T13:41:32.481Z,97351.84
2022-08-24T13:47:00.443Z,97354.88
2022-08-24T13:52:17.944Z,97352.81
2022-08-24T13:57:36.756Z,97338.81
2022-08-24T14:03:21.657Z,97341.63
2022-08-24T14:08:39.270Z,97344.59
2022-08-24T14:14:08.138Z,97334.38
2022-08-24T14:19:45.735Z,97337.69
2022-08-24T14:25:21.918Z,97324.09
2022-08-24T14:30:39.917Z,97317.06
2022-08-24T14:35:41.673Z,97309.66
2022-08-24T14:41:23.040Z,97310.59
2022-08-24T14:46:49.692Z,97328.25
2022-08-24T14:51:57.085Z,97313.94
2022-08-24T14:57:18.380Z,97322.03
2022-08-24T15:02:25.749Z,97308.06
2022-08-24T15:07:31.269Z,97313.31
2022-08-24T15:12:48.655Z,97308.22
2022-08-24T15:17:53.097Z,97304.78
2022-08-24T15:23:04.462Z,97293.28
2022-08-24T15:28:23.188Z,97295.84
2022-08-24T15:33:25.635Z,97293.69
2022-08-24T15:38:30.535Z,97291.22
2022-08-24T15:43:34.653Z,97288.41
2022-08-24T15:48:37.284Z,97292.41
2022-08-24T15:53:42.469Z,97299.19
2022-08-24T15:58:44.221Z,97295.56
2022-08-24T16:03:50.475Z,97288.19
2022-08-24T16:08:58.308Z,97298.09
2022-08-24T16:14:00.776Z,97294.09
2022-08-24T16:19:08.432Z,97295.69
2022-08-24T16:24:28.442Z,97293.63
2022-08-24T16:36:36.912Z,97287.28
2022-08-24T16:41:40.040Z,97284.88
2022-08-24T16:46:41.741Z,97290.78
2022-08-24T16:51:49.954Z,97295.25
2022-08-24T16:56:53.402Z,97298.31
2022-08-24T17:01:55.766Z,97302.13
2022-08-24T17:06:57.938Z,97307.28
2022-08-24T17:17:35.172Z,97298.31
2022-08-24T17:22:37.327Z,97304.19
2022-08-24T17:27:39.220Z,97299.72
2022-08-24T17:43:57.233Z,97303.81
2022-08-24T17:48:59.733Z,97307.84
2022-08-24T17:54:01.621Z,97307.19
2022-08-24T17:59:24.756Z,97307.28
2022-08-24T18:04:29.878Z,97312.78
2022-08-24T18:10:34.448Z,97315.59
2022-08-24T18:15:36.594Z,97324.34
2022-08-24T18:20:40.699Z,97329.72
2022-08-24T18:25:48.917Z,97323.88
2022-08-24T18:31:16.468Z,97326.56
2022-08-24T18:36:18.902Z,97339.88
2022-08-24T18:41:21.188Z,97347.44
2022-08-24T18:46:23.070Z,97350.78
2022-08-24T18:51:27.823Z,97364.94
2022-08-24T18:56:36.710Z,97355.88
2022-08-24T19:02:10.836Z,97363.22
2022-08-24T19:07:13.629Z,97359.13
2022-08-24T19:12:15.795Z,97362.59
2022-08-24T19:17:17.588Z,97364.88
2022-08-24T19:22:20.172Z,97361.94
2022-08-24T19:27:24.180Z,97363.72
2022-08-24T19:32:29.212Z,97366.19
2022-08-24T19:37:31.283Z,97356.84
2022-08-24T19:42:33.177Z,97359.97
2022-08-24T19:47:35.449Z,97360.47
